sensor_id;sensor_type;location;lat;lon;timestamp;temperature;humidity
67862;DHT22;54665;51.462;6.698;2023-10-08T00:00:26;17.59;80.41
67862;DHT22;54665;51.462;6.698;2023-10-08T00:02:27;17.57;80.88
67862;DHT22;54665;51.462;6.698;2023-10-08T00:04:27;17.63;80.42
67862;DHT22;54665;51.462;6.698;2023-10-08T00:06:27;17.65;80.56
67862;DHT22;54665;51.462;6.698;2023-10-08T00:08:28;17.62;80.60
67862;DHT22;54665;51.462;6.698;2023-10-08T00:10:28;17.54;81.16
67862;DHT22;54665;51.462;6.698;2023-10-08T00:12:28;17.47;81.29
67862;DHT22;54665;51.462;6.698;2023-10-08T00:14:28;17.47;81.23
67862;DHT22;54665;51.462;6.698;2023-10-08T00:16:29;17.42;81.39
67862;DHT22;54665;51.462;6.698;2023-10-08T00:18:29;17.39;81.63
67862;DHT22;54665;51.462;6.698;2023-10-08T00:20:30;17.37;81.36
67862;DHT22;54665;51.462;6.698;2023-10-08T00:22:30;17.36;81.51
67862;DHT22;54665;51.462;6.698;2023-10-08T00:24:30;17.35;81.26
67862;DHT22;54665;51.462;6.698;2023-10-08T00:26:31;17.33;81.86
67862;DHT22;54665;51.462;6.698;2023-10-08T00:28:32;17.32;81.39
67862;DHT22;54665;51.462;6.698;2023-10-08T00:30:32;17.32;81.70
67862;DHT22;54665;51.462;6.698;2023-10-08T00:32:33;17.27;81.42
67862;DHT22;54665;51.462;6.698;2023-10-08T00:34:33;17.39;80.89
67862;DHT22;54665;51.462;6.698;2023-10-08T00:36:33;17.37;81.25
67862;DHT22;54665;51.462;6.698;2023-10-08T00:38:33;17.35;80.85
67862;DHT22;54665;51.462;6.698;2023-10-08T00:40:38;17.33;81.23
67862;DHT22;54665;51.462;6.698;2023-10-08T00:42:38;17.26;81.41
67862;DHT22;54665;51.462;6.698;2023-10-08T00:44:38;17.20;81.85
67862;DHT22;54665;51.462;6.698;2023-10-08T00:46:39;17.16;81.95
67862;DHT22;54665;51.462;6.698;2023-10-08T00:48:39;17.12;82.05
67862;DHT22;54665;51.462;6.698;2023-10-08T00:50:40;17.09;82.25
67862;DHT22;54665;51.462;6.698;2023-10-08T00:52:41;17.11;81.92
67862;DHT22;54665;51.462;6.698;2023-10-08T00:54:42;17.02;82.69
67862;DHT22;54665;51.462;6.698;2023-10-08T00:56:46;17.01;82.56
67862;DHT22;54665;51.462;6.698;2023-10-08T00:58:46;17.04;82.08
67862;DHT22;54665;51.462;6.698;2023-10-08T01:00:47;16.98;82.60
67862;DHT22;54665;51.462;6.698;2023-10-08T01:02:47;16.96;82.76
67862;DHT22;54665;51.462;6.698;2023-10-08T01:04:47;16.92;82.64
67862;DHT22;54665;51.462;6.698;2023-10-08T01:06:50;16.92;82.62
67862;DHT22;54665;51.462;6.698;2023-10-08T01:08:51;16.89;83.10
67862;DHT22;54665;51.462;6.698;2023-10-08T01:10:51;16.87;82.88
67862;DHT22;54665;51.462;6.698;2023-10-08T01:12:52;16.85;82.56
67862;DHT22;54665;51.462;6.698;2023-10-08T01:14:53;16.85;82.47
67862;DHT22;54665;51.462;6.698;2023-10-08T01:16:53;16.82;82.70
67862;DHT22;54665;51.462;6.698;2023-10-08T01:18:53;16.78;83.25
67862;DHT22;54665;51.462;6.698;2023-10-08T01:20:54;16.68;83.49
67862;DHT22;54665;51.462;6.698;2023-10-08T01:22:55;16.60;83.74
67862;DHT22;54665;51.462;6.698;2023-10-08T01:24:58;16.53;84.08
67862;DHT22;54665;51.462;6.698;2023-10-08T01:26:58;16.46;84.41
67862;DHT22;54665;51.462;6.698;2023-10-08T01:28:59;16.36;84.72
67862;DHT22;54665;51.462;6.698;2023-10-08T01:30:59;16.26;84.96
67862;DHT22;54665;51.462;6.698;2023-10-08T01:33:00;16.26;85.04
67862;DHT22;54665;51.462;6.698;2023-10-08T01:35:00;16.23;85.18
67862;DHT22;54665;51.462;6.698;2023-10-08T01:37:00;16.21;84.98
67862;DHT22;54665;51.462;6.698;2023-10-08T01:39:01;16.18;85.22
67862;DHT22;54665;51.462;6.698;2023-10-08T01:41:01;16.13;85.46
67862;DHT22;54665;51.462;6.698;2023-10-08T01:43:01;16.14;85.58
67862;DHT22;54665;51.462;6.698;2023-10-08T01:45:02;16.12;85.77
67862;DHT22;54665;51.462;6.698;2023-10-08T01:47:02;16.09;85.62
67862;DHT22;54665;51.462;6.698;2023-10-08T01:49:02;16.13;85.44
67862;DHT22;54665;51.462;6.698;2023-10-08T01:51:03;16.16;85.30
67862;DHT22;54665;51.462;6.698;2023-10-08T01:53:04;16.18;85.14
67862;DHT22;54665;51.462;6.698;2023-10-08T01:55:04;16.21;85.04
67862;DHT22;54665;51.462;6.698;2023-10-08T01:57:05;16.30;84.75
67862;DHT22;54665;51.462;6.698;2023-10-08T01:59:05;16.34;84.57
67862;DHT22;54665;51.462;6.698;2023-10-08T02:01:06;16.30;84.38
67862;DHT22;54665;51.462;6.698;2023-10-08T02:03:06;16.26;84.73
67862;DHT22;54665;51.462;6.698;2023-10-08T02:05:07;16.28;84.60
67862;DHT22;54665;51.462;6.698;2023-10-08T02:07:08;16.24;84.67
67862;DHT22;54665;51.462;6.698;2023-10-08T02:09:08;16.21;84.66
67862;DHT22;54665;51.462;6.698;2023-10-08T02:11:08;16.16;84.50
67862;DHT22;54665;51.462;6.698;2023-10-08T02:13:10;16.16;84.83
67862;DHT22;54665;51.462;6.698;2023-10-08T02:15:10;16.14;84.83
67862;DHT22;54665;51.462;6.698;2023-10-08T02:17:10;16.10;85.16
67862;DHT22;54665;51.462;6.698;2023-10-08T02:19:11;16.06;84.97
67862;DHT22;54665;51.462;6.698;2023-10-08T02:21:11;16.05;84.74
67862;DHT22;54665;51.462;6.698;2023-10-08T02:23:12;16.10;84.54
67862;DHT22;54665;51.462;6.698;2023-10-08T02:25:12;16.03;84.89
67862;DHT22;54665;51.462;6.698;2023-10-08T02:27:13;15.99;84.68
67862;DHT22;54665;51.462;6.698;2023-10-08T02:29:13;15.99;84.73
67862;DHT22;54665;51.462;6.698;2023-10-08T02:31:13;15.90;85.07
67862;DHT22;54665;51.462;6.698;2023-10-08T02:33:14;15.90;84.78
67862;DHT22;54665;51.462;6.698;2023-10-08T02:35:15;15.90;84.72
67862;DHT22;54665;51.462;6.698;2023-10-08T02:37:16;16.00;84.10
67862;DHT22;54665;51.462;6.698;2023-10-08T02:39:16;16.02;84.29
67862;DHT22;54665;51.462;6.698;2023-10-08T02:41:17;15.95;85.08
67862;DHT22;54665;51.462;6.698;2023-10-08T02:43:17;15.90;84.41
67862;DHT22;54665;51.462;6.698;2023-10-08T02:45:17;15.90;84.42
67862;DHT22;54665;51.462;6.698;2023-10-08T02:47:17;15.89;84.58
67862;DHT22;54665;51.462;6.698;2023-10-08T02:49:19;15.83;84.04
67862;DHT22;54665;51.462;6.698;2023-10-08T02:51:20;15.93;83.15
67862;DHT22;54665;51.462;6.698;2023-10-08T02:53:20;15.92;83.75
67862;DHT22;54665;51.462;6.698;2023-10-08T02:55:20;15.95;83.38
67862;DHT22;54665;51.462;6.698;2023-10-08T02:57:20;15.97;83.21
67862;DHT22;54665;51.462;6.698;2023-10-08T02:59:21;16.02;82.91
67862;DHT22;54665;51.462;6.698;2023-10-08T03:01:21;16.03;82.86
67862;DHT22;54665;51.462;6.698;2023-10-08T03:03:21;16.02;82.92
67862;DHT22;54665;51.462;6.698;2023-10-08T03:05:22;16.06;82.49
67862;DHT22;54665;51.462;6.698;2023-10-08T03:07:22;16.00;82.94
67862;DHT22;54665;51.462;6.698;2023-10-08T03:09:24;15.99;82.53
67862;DHT22;54665;51.462;6.698;2023-10-08T03:11:24;15.96;83.05
67862;DHT22;54665;51.462;6.698;2023-10-08T03:13:25;15.93;82.89
67862;DHT22;54665;51.462;6.698;2023-10-08T03:15:25;15.90;82.59
67862;DHT22;54665;51.462;6.698;2023-10-08T03:17:26;15.95;82.90
67862;DHT22;54665;51.462;6.698;2023-10-08T03:19:26;15.92;82.83
67862;DHT22;54665;51.462;6.698;2023-10-08T03:21:26;15.86;83.05
67862;DHT22;54665;51.462;6.698;2023-10-08T03:23:27;15.86;82.51
67862;DHT22;54665;51.462;6.698;2023-10-08T03:25:27;15.85;82.75
67862;DHT22;54665;51.462;6.698;2023-10-08T03:27:27;15.85;82.84
67862;DHT22;54665;51.462;6.698;2023-10-08T03:29:28;15.81;83.40
67862;DHT22;54665;51.462;6.698;2023-10-08T03:31:28;15.79;83.21
67862;DHT22;54665;51.462;6.698;2023-10-08T03:33:35;15.78;82.94
67862;DHT22;54665;51.462;6.698;2023-10-08T03:35:36;15.78;83.16
67862;DHT22;54665;51.462;6.698;2023-10-08T03:37:36;15.73;83.21
67862;DHT22;54665;51.462;6.698;2023-10-08T03:39:36;15.70;82.97
67862;DHT22;54665;51.462;6.698;2023-10-08T03:41:37;15.69;83.14
67862;DHT22;54665;51.462;6.698;2023-10-08T03:43:37;15.65;84.02
67862;DHT22;54665;51.462;6.698;2023-10-08T03:45:37;15.67;83.25
67862;DHT22;54665;51.462;6.698;2023-10-08T03:47:38;15.67;83.22
67862;DHT22;54665;51.462;6.698;2023-10-08T03:49:38;15.66;82.98
67862;DHT22;54665;51.462;6.698;2023-10-08T03:51:39;15.66;83.10
67862;DHT22;54665;51.462;6.698;2023-10-08T03:53:39;15.66;83.21
67862;DHT22;54665;51.462;6.698;2023-10-08T03:55:40;15.69;82.53
67862;DHT22;54665;51.462;6.698;2023-10-08T03:57:40;15.66;83.18
67862;DHT22;54665;51.462;6.698;2023-10-08T03:59:41;15.67;82.97
67862;DHT22;54665;51.462;6.698;2023-10-08T04:01:42;15.65;82.97
67862;DHT22;54665;51.462;6.698;2023-10-08T04:03:42;15.63;82.82
67862;DHT22;54665;51.462;6.698;2023-10-08T04:05:42;15.62;83.31
67862;DHT22;54665;51.462;6.698;2023-10-08T04:07:43;15.61;83.33
67862;DHT22;54665;51.462;6.698;2023-10-08T04:09:43;15.59;83.57
67862;DHT22;54665;51.462;6.698;2023-10-08T04:11:44;15.61;83.46
67862;DHT22;54665;51.462;6.698;2023-10-08T04:13:44;15.59;83.30
67862;DHT22;54665;51.462;6.698;2023-10-08T04:15:45;15.61;83.33
67862;DHT22;54665;51.462;6.698;2023-10-08T04:17:45;15.62;83.11
67862;DHT22;54665;51.462;6.698;2023-10-08T04:19:45;15.65;82.79
67862;DHT22;54665;51.462;6.698;2023-10-08T04:21:46;15.65;83.12
67862;DHT22;54665;51.462;6.698;2023-10-08T04:23:46;15.61;83.34
67862;DHT22;54665;51.462;6.698;2023-10-08T04:25:47;15.55;83.37
67862;DHT22;54665;51.462;6.698;2023-10-08T04:27:47;15.54;83.22
67862;DHT22;54665;51.462;6.698;2023-10-08T04:29:47;15.49;83.59
67862;DHT22;54665;51.462;6.698;2023-10-08T04:31:49;15.45;83.79
67862;DHT22;54665;51.462;6.698;2023-10-08T04:33:49;15.44;83.79
67862;DHT22;54665;51.462;6.698;2023-10-08T04:35:49;15.38;83.45
67862;DHT22;54665;51.462;6.698;2023-10-08T04:37:50;15.42;83.85
67862;DHT22;54665;51.462;6.698;2023-10-08T04:39:50;15.42;83.67
67862;DHT22;54665;51.462;6.698;2023-10-08T04:41:50;15.39;83.68
67862;DHT22;54665;51.462;6.698;2023-10-08T04:43:50;15.36;83.88
67862;DHT22;54665;51.462;6.698;2023-10-08T04:45:51;15.36;83.97
67862;DHT22;54665;51.462;6.698;2023-10-08T04:47:52;15.35;84.35
67862;DHT22;54665;51.462;6.698;2023-10-08T04:49:52;15.35;84.09
67862;DHT22;54665;51.462;6.698;2023-10-08T04:51:59;15.35;83.93
67862;DHT22;54665;51.462;6.698;2023-10-08T04:53:59;15.35;83.87
67862;DHT22;54665;51.462;6.698;2023-10-08T04:56:00;15.39;84.19
67862;DHT22;54665;51.462;6.698;2023-10-08T04:58:01;15.42;84.10
67862;DHT22;54665;51.462;6.698;2023-10-08T05:00:01;15.42;83.95
67862;DHT22;54665;51.462;6.698;2023-10-08T05:02:04;15.42;84.12
67862;DHT22;54665;51.462;6.698;2023-10-08T05:04:04;15.44;83.78
67862;DHT22;54665;51.462;6.698;2023-10-08T05:06:05;15.44;83.79
67862;DHT22;54665;51.462;6.698;2023-10-08T05:08:05;15.48;83.72
67862;DHT22;54665;51.462;6.698;2023-10-08T05:10:06;15.49;83.94
67862;DHT22;54665;51.462;6.698;2023-10-08T05:12:06;15.49;83.88
67862;DHT22;54665;51.462;6.698;2023-10-08T05:14:07;15.49;83.89
67862;DHT22;54665;51.462;6.698;2023-10-08T05:16:07;15.55;83.87
67862;DHT22;54665;51.462;6.698;2023-10-08T05:18:08;15.54;84.01
67862;DHT22;54665;51.462;6.698;2023-10-08T05:20:08;15.56;83.93
67862;DHT22;54665;51.462;6.698;2023-10-08T05:22:12;15.56;84.39
67862;DHT22;54665;51.462;6.698;2023-10-08T05:24:12;15.58;84.10
67862;DHT22;54665;51.462;6.698;2023-10-08T05:26:13;15.58;83.33
67862;DHT22;54665;51.462;6.698;2023-10-08T05:28:13;15.55;83.59
67862;DHT22;54665;51.462;6.698;2023-10-08T05:30:17;15.51;83.69
67862;DHT22;54665;51.462;6.698;2023-10-08T05:32:17;15.52;83.90
67862;DHT22;54665;51.462;6.698;2023-10-08T05:34:18;15.51;84.07
67862;DHT22;54665;51.462;6.698;2023-10-08T05:36:18;15.45;84.33
67862;DHT22;54665;51.462;6.698;2023-10-08T05:38:19;15.36;84.21
67862;DHT22;54665;51.462;6.698;2023-10-08T05:40:20;15.34;84.37
67862;DHT22;54665;51.462;6.698;2023-10-08T05:42:20;15.32;84.48
67862;DHT22;54665;51.462;6.698;2023-10-08T05:44:20;15.30;84.43
67862;DHT22;54665;51.462;6.698;2023-10-08T05:46:21;15.28;84.66
67862;DHT22;54665;51.462;6.698;2023-10-08T05:48:21;15.28;84.75
67862;DHT22;54665;51.462;6.698;2023-10-08T05:50:22;15.27;84.95
67862;DHT22;54665;51.462;6.698;2023-10-08T05:52:22;15.28;84.75
67862;DHT22;54665;51.462;6.698;2023-10-08T05:54:24;15.25;84.58
67862;DHT22;54665;51.462;6.698;2023-10-08T05:56:24;15.24;84.57
67862;DHT22;54665;51.462;6.698;2023-10-08T05:58:24;15.24;84.80
67862;DHT22;54665;51.462;6.698;2023-10-08T06:00:25;15.24;84.82
67862;DHT22;54665;51.462;6.698;2023-10-08T06:02:27;15.21;84.72
67862;DHT22;54665;51.462;6.698;2023-10-08T06:04:28;15.24;85.06
67862;DHT22;54665;51.462;6.698;2023-10-08T06:06:28;15.24;85.31
67862;DHT22;54665;51.462;6.698;2023-10-08T06:08:30;15.24;85.25
67862;DHT22;54665;51.462;6.698;2023-10-08T06:10:31;15.23;85.44
67862;DHT22;54665;51.462;6.698;2023-10-08T06:12:32;15.20;85.47
67862;DHT22;54665;51.462;6.698;2023-10-08T06:14:32;15.21;85.25
67862;DHT22;54665;51.462;6.698;2023-10-08T06:16:32;15.25;85.02
67862;DHT22;54665;51.462;6.698;2023-10-08T06:18:33;15.32;84.82
67862;DHT22;54665;51.462;6.698;2023-10-08T06:20:34;15.32;84.80
67862;DHT22;54665;51.462;6.698;2023-10-08T06:22:35;15.32;84.62
67862;DHT22;54665;51.462;6.698;2023-10-08T06:24:36;15.34;84.46
67862;DHT22;54665;51.462;6.698;2023-10-08T06:26:39;15.39;84.83
67862;DHT22;54665;51.462;6.698;2023-10-08T06:28:42;15.36;84.97
67862;DHT22;54665;51.462;6.698;2023-10-08T06:30:42;15.36;84.93
67862;DHT22;54665;51.462;6.698;2023-10-08T06:32:44;15.35;84.63
67862;DHT22;54665;51.462;6.698;2023-10-08T06:34:45;15.38;84.73
67862;DHT22;54665;51.462;6.698;2023-10-08T06:36:45;15.35;84.31
67862;DHT22;54665;51.462;6.698;2023-10-08T06:38:46;15.39;84.49
67862;DHT22;54665;51.462;6.698;2023-10-08T06:40:46;15.36;84.62
67862;DHT22;54665;51.462;6.698;2023-10-08T06:42:47;15.42;84.55
67862;DHT22;54665;51.462;6.698;2023-10-08T06:44:47;15.36;84.51
67862;DHT22;54665;51.462;6.698;2023-10-08T06:46:47;15.35;84.98
67862;DHT22;54665;51.462;6.698;2023-10-08T06:48:48;15.48;84.20
67862;DHT22;54665;51.462;6.698;2023-10-08T06:50:49;15.48;84.59
67862;DHT22;54665;51.462;6.698;2023-10-08T06:52:50;15.51;84.64
67862;DHT22;54665;51.462;6.698;2023-10-08T06:54:50;15.46;84.41
67862;DHT22;54665;51.462;6.698;2023-10-08T06:56:50;15.49;84.49
67862;DHT22;54665;51.462;6.698;2023-10-08T06:58:50;15.52;84.42
67862;DHT22;54665;51.462;6.698;2023-10-08T07:00:52;15.52;84.46
67862;DHT22;54665;51.462;6.698;2023-10-08T07:02:52;15.56;84.41
67862;DHT22;54665;51.462;6.698;2023-10-08T07:04:52;15.51;84.62
67862;DHT22;54665;51.462;6.698;2023-10-08T07:06:53;15.52;84.69
67862;DHT22;54665;51.462;6.698;2023-10-08T07:08:53;15.55;84.77
67862;DHT22;54665;51.462;6.698;2023-10-08T07:10:54;15.54;85.30
67862;DHT22;54665;51.462;6.698;2023-10-08T07:12:54;15.51;85.04
67862;DHT22;54665;51.462;6.698;2023-10-08T07:14:57;15.49;85.45
67862;DHT22;54665;51.462;6.698;2023-10-08T07:16:59;15.49;85.50
67862;DHT22;54665;51.462;6.698;2023-10-08T07:19:00;15.46;85.51
67862;DHT22;54665;51.462;6.698;2023-10-08T07:21:00;15.54;85.29
67862;DHT22;54665;51.462;6.698;2023-10-08T07:23:01;15.59;85.28
67862;DHT22;54665;51.462;6.698;2023-10-08T07:25:01;15.72;85.44
67862;DHT22;54665;51.462;6.698;2023-10-08T07:27:02;15.85;85.10
67862;DHT22;54665;51.462;6.698;2023-10-08T07:29:06;15.93;84.82
67862;DHT22;54665;51.462;6.698;2023-10-08T07:31:16;16.12;84.23
67862;DHT22;54665;51.462;6.698;2023-10-08T07:33:17;16.07;84.40
67862;DHT22;54665;51.462;6.698;2023-10-08T07:35:17;16.10;84.31
67862;DHT22;54665;51.462;6.698;2023-10-08T07:37:17;15.95;84.53
67862;DHT22;54665;51.462;6.698;2023-10-08T07:39:19;16.02;84.62
67862;DHT22;54665;51.462;6.698;2023-10-08T07:41:20;15.92;85.34
67862;DHT22;54665;51.462;6.698;2023-10-08T07:43:21;15.93;85.16
67862;DHT22;54665;51.462;6.698;2023-10-08T07:45:21;15.85;85.67
67862;DHT22;54665;51.462;6.698;2023-10-08T07:47:21;15.73;86.63
67862;DHT22;54665;51.462;6.698;2023-10-08T07:49:22;15.69;86.53
67862;DHT22;54665;51.462;6.698;2023-10-08T07:51:23;15.67;86.19
67862;DHT22;54665;51.462;6.698;2023-10-08T07:53:24;15.76;86.37
67862;DHT22;54665;51.462;6.698;2023-10-08T07:55:24;15.95;86.08
67862;DHT22;54665;51.462;6.698;2023-10-08T07:57:24;16.13;85.52
67862;DHT22;54665;51.462;6.698;2023-10-08T07:59:25;16.23;85.13
67862;DHT22;54665;51.462;6.698;2023-10-08T08:01:25;16.33;84.78
67862;DHT22;54665;51.462;6.698;2023-10-08T08:03:25;16.51;83.94
67862;DHT22;54665;51.462;6.698;2023-10-08T08:05:25;16.72;83.88
67862;DHT22;54665;51.462;6.698;2023-10-08T08:07:26;16.51;84.37
67862;DHT22;54665;51.462;6.698;2023-10-08T08:09:26;16.40;84.63
67862;DHT22;54665;51.462;6.698;2023-10-08T08:11:26;16.46;84.95
67862;DHT22;54665;51.462;6.698;2023-10-08T08:13:27;16.43;84.96
67862;DHT22;54665;51.462;6.698;2023-10-08T08:15:27;16.21;85.31
67862;DHT22;54665;51.462;6.698;2023-10-08T08:17:27;16.23;85.35
67862;DHT22;54665;51.462;6.698;2023-10-08T08:19:28;16.18;86.00
67862;DHT22;54665;51.462;6.698;2023-10-08T08:21:28;16.07;86.18
67862;DHT22;54665;51.462;6.698;2023-10-08T08:23:29;16.12;86.36
67862;DHT22;54665;51.462;6.698;2023-10-08T08:25:30;16.06;86.77
67862;DHT22;54665;51.462;6.698;2023-10-08T08:27:31;15.90;86.79
67862;DHT22;54665;51.462;6.698;2023-10-08T08:29:31;15.85;87.01
67862;DHT22;54665;51.462;6.698;2023-10-08T08:31:31;15.96;87.39
67862;DHT22;54665;51.462;6.698;2023-10-08T08:33:31;16.12;86.62
67862;DHT22;54665;51.462;6.698;2023-10-08T08:35:32;16.34;86.07
67862;DHT22;54665;51.462;6.698;2023-10-08T08:37:32;16.50;86.05
67862;DHT22;54665;51.462;6.698;2023-10-08T08:39:32;16.48;85.62
67862;DHT22;54665;51.462;6.698;2023-10-08T08:41:41;16.71;85.26
67862;DHT22;54665;51.462;6.698;2023-10-08T08:43:43;16.77;85.41
67862;DHT22;54665;51.462;6.698;2023-10-08T08:45:43;16.94;85.12
67862;DHT22;54665;51.462;6.698;2023-10-08T08:47:45;17.15;84.54
67862;DHT22;54665;51.462;6.698;2023-10-08T08:49:45;17.26;84.12
67862;DHT22;54665;51.462;6.698;2023-10-08T08:51:46;17.37;83.64
67862;DHT22;54665;51.462;6.698;2023-10-08T08:53:46;17.40;83.21
67862;DHT22;54665;51.462;6.698;2023-10-08T08:55:47;17.45;82.89
67862;DHT22;54665;51.462;6.698;2023-10-08T08:57:50;17.62;83.05
67862;DHT22;54665;51.462;6.698;2023-10-08T08:59:52;17.43;84.37
67862;DHT22;54665;51.462;6.698;2023-10-08T09:01:54;17.65;82.67
67862;DHT22;54665;51.462;6.698;2023-10-08T09:04:01;17.50;83.84
67862;DHT22;54665;51.462;6.698;2023-10-08T09:06:02;17.25;83.78
67862;DHT22;54665;51.462;6.698;2023-10-08T09:08:04;17.12;84.36
67862;DHT22;54665;51.462;6.698;2023-10-08T09:10:05;17.15;84.11
67862;DHT22;54665;51.462;6.698;2023-10-08T09:12:06;17.18;84.80
67862;DHT22;54665;51.462;6.698;2023-10-08T09:14:07;16.92;85.89
67862;DHT22;54665;51.462;6.698;2023-10-08T09:16:12;16.68;86.95
67862;DHT22;54665;51.462;6.698;2023-10-08T09:18:14;16.82;86.63
67862;DHT22;54665;51.462;6.698;2023-10-08T09:20:14;16.82;85.88
67862;DHT22;54665;51.462;6.698;2023-10-08T09:22:15;16.89;86.11
67862;DHT22;54665;51.462;6.698;2023-10-08T09:24:18;16.77;86.54
67862;DHT22;54665;51.462;6.698;2023-10-08T09:26:22;16.47;87.32
67862;DHT22;54665;51.462;6.698;2023-10-08T09:28:24;16.34;87.65
67862;DHT22;54665;51.462;6.698;2023-10-08T09:30:24;16.37;87.19
67862;DHT22;54665;51.462;6.698;2023-10-08T09:32:24;16.40;87.30
67862;DHT22;54665;51.462;6.698;2023-10-08T09:34:29;16.18;87.05
67862;DHT22;54665;51.462;6.698;2023-10-08T09:36:31;16.02;87.55
67862;DHT22;54665;51.462;6.698;2023-10-08T09:38:35;15.78;87.77
67862;DHT22;54665;51.462;6.698;2023-10-08T09:40:39;15.79;87.65
67862;DHT22;54665;51.462;6.698;2023-10-08T09:42:42;15.72;88.12
67862;DHT22;54665;51.462;6.698;2023-10-08T09:44:42;15.66;88.39
67862;DHT22;54665;51.462;6.698;2023-10-08T09:46:44;15.79;88.40
67862;DHT22;54665;51.462;6.698;2023-10-08T09:48:50;15.69;87.95
67862;DHT22;54665;51.462;6.698;2023-10-08T09:50:52;15.75;87.68
67862;DHT22;54665;51.462;6.698;2023-10-08T09:53:09;15.58;88.01
67862;DHT22;54665;51.462;6.698;2023-10-08T09:55:09;15.67;87.67
67862;DHT22;54665;51.462;6.698;2023-10-08T09:57:11;15.87;86.84
67862;DHT22;54665;51.462;6.698;2023-10-08T09:59:11;15.70;87.74
67862;DHT22;54665;51.462;6.698;2023-10-08T10:01:12;15.82;87.71
67862;DHT22;54665;51.462;6.698;2023-10-08T10:03:13;16.17;86.19
67862;DHT22;54665;51.462;6.698;2023-10-08T10:05:19;16.31;86.33
67862;DHT22;54665;51.462;6.698;2023-10-08T10:07:19;16.71;85.44
67862;DHT22;54665;51.462;6.698;2023-10-08T10:09:21;16.85;84.73
67862;DHT22;54665;51.462;6.698;2023-10-08T10:11:26;16.24;85.78
67862;DHT22;54665;51.462;6.698;2023-10-08T10:13:34;16.54;85.89
67862;DHT22;54665;51.462;6.698;2023-10-08T10:15:41;16.48;85.99
67862;DHT22;54665;51.462;6.698;2023-10-08T10:17:42;16.64;85.00
67862;DHT22;54665;51.462;6.698;2023-10-08T10:19:42;16.54;85.16
67862;DHT22;54665;51.462;6.698;2023-10-08T10:21:42;16.31;85.44
67862;DHT22;54665;51.462;6.698;2023-10-08T10:23:44;16.10;86.55
67862;DHT22;54665;51.462;6.698;2023-10-08T10:25:44;16.24;85.86
67862;DHT22;54665;51.462;6.698;2023-10-08T10:30:02;16.57;84.73
67862;DHT22;54665;51.462;6.698;2023-10-08T10:32:02;16.78;84.77
67862;DHT22;54665;51.462;6.698;2023-10-08T10:34:06;16.61;84.81
67862;DHT22;54665;51.462;6.698;2023-10-08T10:36:06;16.67;84.76
67862;DHT22;54665;51.462;6.698;2023-10-08T10:38:07;16.74;84.29
67862;DHT22;54665;51.462;6.698;2023-10-08T10:40:08;16.16;85.93
67862;DHT22;54665;51.462;6.698;2023-10-08T10:42:09;16.16;86.67
67862;DHT22;54665;51.462;6.698;2023-10-08T10:44:11;16.27;85.76
67862;DHT22;54665;51.462;6.698;2023-10-08T10:46:11;16.28;85.24
67862;DHT22;54665;51.462;6.698;2023-10-08T10:48:11;16.33;85.48
67862;DHT22;54665;51.462;6.698;2023-10-08T10:50:12;16.28;85.77
67862;DHT22;54665;51.462;6.698;2023-10-08T10:52:12;16.10;85.92
67862;DHT22;54665;51.462;6.698;2023-10-08T10:54:12;16.10;86.07
67862;DHT22;54665;51.462;6.698;2023-10-08T10:56:16;16.41;85.66
67862;DHT22;54665;51.462;6.698;2023-10-08T10:58:18;16.34;84.94
67862;DHT22;54665;51.462;6.698;2023-10-08T11:00:19;16.53;85.31
67862;DHT22;54665;51.462;6.698;2023-10-08T11:02:19;16.65;84.54
67862;DHT22;54665;51.462;6.698;2023-10-08T11:04:19;16.47;83.79
67862;DHT22;54665;51.462;6.698;2023-10-08T11:06:20;16.18;85.03
67862;DHT22;54665;51.462;6.698;2023-10-08T11:08:21;16.33;84.81
67862;DHT22;54665;51.462;6.698;2023-10-08T11:10:22;16.07;86.07
67862;DHT22;54665;51.462;6.698;2023-10-08T11:12:23;16.13;86.42
67862;DHT22;54665;51.462;6.698;2023-10-08T11:14:23;15.97;86.05
67862;DHT22;54665;51.462;6.698;2023-10-08T11:16:25;15.86;86.43
67862;DHT22;54665;51.462;6.698;2023-10-08T11:18:26;15.90;85.71
67862;DHT22;54665;51.462;6.698;2023-10-08T11:20:27;15.95;85.76
67862;DHT22;54665;51.462;6.698;2023-10-08T11:22:41;16.16;84.99
67862;DHT22;54665;51.462;6.698;2023-10-08T11:24:42;15.82;86.31
67862;DHT22;54665;51.462;6.698;2023-10-08T11:26:43;16.13;85.15
67862;DHT22;54665;51.462;6.698;2023-10-08T11:28:44;16.12;85.30
67862;DHT22;54665;51.462;6.698;2023-10-08T11:30:44;16.13;85.61
67862;DHT22;54665;51.462;6.698;2023-10-08T11:32:46;16.33;84.87
67862;DHT22;54665;51.462;6.698;2023-10-08T11:34:47;16.40;84.42
67862;DHT22;54665;51.462;6.698;2023-10-08T11:36:52;16.38;84.84
67862;DHT22;54665;51.462;6.698;2023-10-08T11:38:57;16.57;84.08
67862;DHT22;54665;51.462;6.698;2023-10-08T11:41:09;16.94;83.25
67862;DHT22;54665;51.462;6.698;2023-10-08T11:43:10;17.26;82.82
67862;DHT22;54665;51.462;6.698;2023-10-08T11:45:11;17.30;81.67
67862;DHT22;54665;51.462;6.698;2023-10-08T11:47:12;17.30;80.74
67862;DHT22;54665;51.462;6.698;2023-10-08T11:49:12;17.47;80.23
67862;DHT22;54665;51.462;6.698;2023-10-08T11:51:13;17.56;80.14
67862;DHT22;54665;51.462;6.698;2023-10-08T11:53:13;17.86;80.15
67862;DHT22;54665;51.462;6.698;2023-10-08T11:55:14;17.91;79.63
67862;DHT22;54665;51.462;6.698;2023-10-08T11:57:14;18.05;79.11
67862;DHT22;54665;51.462;6.698;2023-10-08T11:59:15;18.22;78.80
67862;DHT22;54665;51.462;6.698;2023-10-08T12:01:15;18.14;78.81
67862;DHT22;54665;51.462;6.698;2023-10-08T12:03:16;17.87;79.33
67862;DHT22;54665;51.462;6.698;2023-10-08T12:05:16;17.77;78.94
67862;DHT22;54665;51.462;6.698;2023-10-08T12:07:16;17.67;79.97
67862;DHT22;54665;51.462;6.698;2023-10-08T12:09:17;17.62;79.37
67862;DHT22;54665;51.462;6.698;2023-10-08T12:11:17;17.56;79.33
67862;DHT22;54665;51.462;6.698;2023-10-08T12:13:17;17.46;80.17
67862;DHT22;54665;51.462;6.698;2023-10-08T12:15:21;17.74;79.73
67862;DHT22;54665;51.462;6.698;2023-10-08T12:17:22;18.01;79.44
67862;DHT22;54665;51.462;6.698;2023-10-08T12:19:22;18.15;78.32
67862;DHT22;54665;51.462;6.698;2023-10-08T12:21:22;17.94;78.14
67862;DHT22;54665;51.462;6.698;2023-10-08T12:23:23;17.91;79.45
67862;DHT22;54665;51.462;6.698;2023-10-08T12:25:23;18.05;78.93
67862;DHT22;54665;51.462;6.698;2023-10-08T12:27:23;18.09;78.32
67862;DHT22;54665;51.462;6.698;2023-10-08T12:29:24;17.94;77.98
67862;DHT22;54665;51.462;6.698;2023-10-08T12:31:24;17.96;77.69
67862;DHT22;54665;51.462;6.698;2023-10-08T12:33:24;17.93;78.47
67862;DHT22;54665;51.462;6.698;2023-10-08T12:35:25;18.11;79.09
67862;DHT22;54665;51.462;6.698;2023-10-08T12:37:26;17.69;78.41
67862;DHT22;54665;51.462;6.698;2023-10-08T12:39:26;17.33;79.55
67862;DHT22;54665;51.462;6.698;2023-10-08T12:41:26;17.18;80.65
67862;DHT22;54665;51.462;6.698;2023-10-08T12:43:27;17.11;80.76
67862;DHT22;54665;51.462;6.698;2023-10-08T12:45:27;17.18;81.63